createdAt,value
2023-02-16T00:00:10.568Z,0.00
2023-02-16T00:01:10.577Z,0.00
2023-02-16T00:02:10.641Z,0.00
2023-02-16T00:03:10.600Z,0.00
2023-02-16T00:04:10.601Z,0.00
2023-02-16T00:05:10.610Z,0.00
2023-02-16T00:06:10.617Z,0.00
2023-02-16T00:07:10.624Z,0.00
2023-02-16T00:08:10.635Z,0.00
2023-02-16T00:09:10.638Z,0.00
2023-02-16T00:10:10.650Z,0.00
2023-02-16T00:11:10.656Z,0.00
2023-02-16T00:12:10.669Z,0.00
2023-02-16T00:13:10.672Z,0.00
2023-02-16T00:14:10.682Z,0.00
2023-02-16T00:15:10.688Z,0.00
2023-02-16T00:16:10.737Z,0.00
2023-02-16T00:17:10.708Z,0.00
2023-02-16T00:18:10.711Z,0.00
2023-02-16T00:19:10.717Z,0.00
2023-02-16T00:20:10.726Z,0.00
2023-02-16T00:21:10.734Z,0.00
2023-02-16T00:22:10.741Z,0.00
2023-02-16T00:23:10.754Z,0.00
2023-02-16T00:24:10.761Z,0.00
2023-02-16T00:25:10.770Z,0.00
2023-02-16T00:26:10.804Z,0.00
2023-02-16T00:27:10.781Z,0.00
2023-02-16T00:28:10.789Z,0.00
2023-02-16T00:29:10.795Z,0.00
2023-02-16T00:30:10.876Z,0.00
2023-02-16T00:31:10.889Z,0.00
2023-02-16T00:32:10.919Z,0.00
2023-02-16T00:33:10.837Z,0.00
2023-02-16T00:34:10.842Z,0.00
2023-02-16T00:35:10.846Z,0.00
2023-02-16T00:36:10.853Z,0.00
2023-02-16T00:37:10.890Z,0.00
2023-02-16T00:38:10.869Z,0.00
2023-02-16T00:39:10.876Z,0.00
2023-02-16T00:40:10.883Z,0.00
2023-02-16T00:41:10.892Z,0.00
2023-02-16T00:42:10.900Z,0.00
2023-02-16T00:43:10.909Z,0.00
2023-02-16T00:44:10.916Z,0.00
2023-02-16T00:45:10.928Z,0.00
2023-02-16T00:46:10.981Z,0.00
2023-02-16T00:47:10.946Z,0.00
2023-02-16T00:48:10.948Z,0.00
2023-02-16T00:49:10.957Z,0.00
2023-02-16T00:50:10.968Z,0.00
2023-02-16T00:51:24.914Z,0.00
2023-02-16T00:52:10.981Z,0.00
2023-02-16T00:53:10.987Z,0.00
2023-02-16T00:54:10.997Z,0.00
2023-02-16T00:55:11.005Z,0.00
2023-02-16T00:56:11.012Z,0.00
2023-02-16T00:57:11.022Z,0.00
2023-02-16T00:58:11.031Z,0.00
2023-02-16T00:59:11.035Z,0.00
2023-02-16T01:00:11.042Z,0.00
2023-02-16T01:01:11.112Z,0.00
2023-02-16T01:02:11.067Z,0.00
2023-02-16T01:03:11.066Z,0.00
2023-02-16T01:04:11.079Z,0.00
2023-02-16T01:05:11.080Z,0.00
2023-02-16T01:06:11.091Z,0.00
2023-02-16T01:07:11.104Z,0.00
2023-02-16T01:08:11.122Z,0.00
2023-02-16T01:09:11.125Z,0.00
2023-02-16T01:10:11.124Z,0.00
2023-02-16T01:11:11.137Z,0.00
2023-02-16T01:12:11.135Z,0.00
2023-02-16T01:13:11.137Z,0.00
2023-02-16T01:14:11.152Z,0.00
2023-02-16T01:15:11.170Z,0.00
2023-02-16T01:16:11.227Z,0.00
2023-02-16T01:17:11.168Z,0.00
2023-02-16T01:18:11.186Z,0.00
2023-02-16T01:19:11.187Z,0.00
2023-02-16T01:20:11.192Z,0.00
2023-02-16T01:21:11.201Z,0.00
2023-02-16T01:22:11.207Z,0.00
2023-02-16T01:23:11.216Z,0.00
2023-02-16T01:24:11.222Z,0.00
2023-02-16T01:25:11.232Z,0.00
2023-02-16T01:26:11.246Z,0.00
2023-02-16T01:27:11.247Z,0.00
2023-02-16T01:28:11.255Z,0.00
2023-02-16T01:29:11.261Z,0.00
2023-02-16T01:30:11.328Z,0.00
2023-02-16T01:31:11.364Z,0.00
2023-02-16T01:32:11.404Z,0.00
2023-02-16T01:33:11.289Z,0.00
2023-02-16T01:34:11.294Z,0.00
2023-02-16T01:35:11.306Z,0.00
2023-02-16T01:36:11.332Z,0.00
2023-02-16T01:37:11.325Z,0.00
2023-02-16T01:38:11.341Z,0.00
2023-02-16T01:39:11.337Z,0.00
2023-02-16T01:40:11.345Z,0.00
2023-02-16T01:41:11.353Z,0.00
2023-02-16T01:42:11.360Z,0.00
2023-02-16T01:43:11.371Z,0.00
2023-02-16T01:44:11.395Z,0.00
2023-02-16T01:45:11.388Z,0.00
2023-02-16T01:46:11.436Z,0.00
2023-02-16T01:47:11.397Z,0.00
2023-02-16T01:48:11.408Z,0.00
2023-02-16T01:49:11.412Z,0.00
2023-02-16T01:50:11.421Z,0.00
2023-02-16T01:51:11.426Z,0.00
2023-02-16T01:52:11.434Z,0.00
2023-02-16T01:53:11.444Z,0.00
2023-02-16T01:54:11.458Z,0.00
2023-02-16T01:55:11.459Z,0.00
2023-02-16T01:56:11.467Z,0.00
2023-02-16T01:57:11.472Z,0.00
2023-02-16T01:58:11.484Z,0.00
2023-02-16T01:59:11.487Z,0.00
2023-02-16T02:00:11.495Z,0.00
2023-02-16T02:01:11.502Z,0.00
2023-02-16T02:02:11.511Z,0.00
2023-02-16T02:03:11.560Z,0.00
2023-02-16T02:04:11.527Z,0.00
2023-02-16T02:05:11.533Z,0.00
2023-02-16T02:06:11.540Z,0.00
2023-02-16T02:07:11.553Z,0.00
2023-02-16T02:08:11.555Z,0.00
2023-02-16T02:09:11.563Z,0.00
2023-02-16T02:10:11.580Z,0.00
2023-02-16T02:11:11.582Z,0.00
2023-02-16T02:12:11.589Z,0.00
2023-02-16T02:13:11.590Z,0.00
2023-02-16T02:14:11.599Z,0.00
2023-02-16T02:15:11.605Z,0.00
2023-02-16T02:16:11.671Z,0.00
2023-02-16T02:17:11.619Z,0.00
2023-02-16T02:18:11.627Z,0.00
2023-02-16T02:19:11.635Z,0.00
2023-02-16T02:20:11.644Z,0.00
2023-02-16T02:21:11.654Z,0.00
2023-02-16T02:22:11.657Z,0.00
2023-02-16T02:23:11.664Z,0.00
2023-02-16T02:24:11.676Z,0.00
2023-02-16T02:25:11.686Z,0.00
2023-02-16T02:26:11.688Z,0.00
2023-02-16T02:27:11.694Z,0.00
2023-02-16T02:28:11.704Z,0.00
2023-02-16T02:29:11.708Z,0.00
2023-02-16T02:30:11.756Z,0.00
2023-02-16T02:31:11.843Z,0.00
2023-02-16T02:32:11.754Z,0.00
2023-02-16T02:33:11.768Z,0.00
2023-02-16T02:34:11.743Z,0.00
2023-02-16T02:35:11.754Z,0.00
2023-02-16T02:36:11.776Z,0.00
2023-02-16T02:37:11.775Z,0.00
2023-02-16T02:38:11.775Z,0.00
2023-02-16T02:39:11.784Z,0.00
2023-02-16T02:40:11.789Z,0.00
2023-02-16T02:41:11.798Z,0.00
2023-02-16T02:42:11.806Z,0.00
2023-02-16T02:43:11.811Z,0.00
2023-02-16T02:44:11.821Z,0.00
2023-02-16T02:45:11.843Z,0.00
2023-02-16T02:46:11.869Z,0.00
2023-02-16T02:47:11.842Z,0.00
2023-02-16T02:48:11.853Z,0.00
2023-02-16T02:49:11.864Z,0.00
2023-02-16T02:50:11.863Z,0.00
2023-02-16T02:51:11.873Z,0.00
2023-02-16T02:52:11.880Z,0.00
2023-02-16T02:53:11.886Z,0.00
2023-02-16T02:54:11.894Z,0.00
2023-02-16T02:55:11.900Z,0.00
2023-02-16T02:56:11.909Z,0.00
2023-02-16T02:57:11.920Z,0.00
2023-02-16T02:58:11.923Z,0.00
2023-02-16T02:59:11.943Z,0.00
2023-02-16T03:00:11.940Z,0.00
2023-02-16T03:01:11.985Z,0.00
2023-02-16T03:02:11.972Z,0.00
2023-02-16T03:03:11.968Z,0.00
2023-02-16T03:04:11.970Z,0.00
2023-02-16T03:05:11.979Z,0.00
2023-02-16T03:06:11.984Z,0.00
2023-02-16T03:07:11.989Z,0.00
2023-02-16T03:08:11.998Z,0.00
2023-02-16T03:09:12.013Z,0.00
2023-02-16T03:10:12.011Z,0.00
2023-02-16T03:11:12.031Z,0.00
2023-02-16T03:12:12.034Z,0.00
2023-02-16T03:13:12.034Z,0.00
2023-02-16T03:14:12.041Z,0.00
2023-02-16T03:15:12.057Z,0.00
2023-02-16T03:16:12.119Z,0.00
2023-02-16T03:17:12.064Z,0.00
2023-02-16T03:18:12.070Z,0.00
2023-02-16T03:19:12.080Z,0.00
2023-02-16T03:20:12.083Z,0.00
2023-02-16T03:21:12.094Z,0.00
2023-02-16T03:22:12.100Z,0.00
2023-02-16T03:23:12.109Z,0.00
2023-02-16T03:24:12.115Z,0.00
2023-02-16T03:25:12.119Z,0.00
2023-02-16T03:26:12.130Z,0.00
2023-02-16T03:27:12.134Z,0.00
2023-02-16T03:28:12.144Z,0.00
2023-02-16T03:29:12.147Z,0.00
2023-02-16T03:30:12.198Z,0.00
2023-02-16T03:31:12.265Z,0.00
2023-02-16T03:32:12.240Z,0.00
2023-02-16T03:33:12.180Z,0.00
2023-02-16T03:34:12.184Z,0.00
2023-02-16T03:35:12.192Z,0.00
2023-02-16T03:36:12.202Z,0.00
2023-02-16T03:37:12.205Z,0.00
2023-02-16T03:38:12.215Z,0.00
2023-02-16T03:39:12.219Z,0.00
2023-02-16T03:40:12.240Z,0.00
2023-02-16T03:41:12.253Z,0.00
2023-02-16T03:42:12.239Z,0.00
2023-02-16T03:43:12.254Z,0.00
2023-02-16T03:44:12.280Z,0.00
2023-02-16T03:45:12.264Z,0.00
2023-02-16T03:46:12.298Z,0.00
2023-02-16T03:47:12.277Z,0.00
2023-02-16T03:48:12.293Z,0.00
2023-02-16T03:49:12.291Z,0.00
2023-02-16T03:50:12.298Z,0.00
2023-02-16T03:51:12.304Z,0.00
2023-02-16T03:52:12.314Z,0.00
2023-02-16T03:53:12.319Z,0.00
2023-02-16T03:54:12.328Z,0.00
2023-02-16T03:55:12.340Z,0.00
2023-02-16T03:56:12.349Z,0.00
2023-02-16T03:57:12.352Z,0.00
2023-02-16T03:58:12.365Z,0.00
2023-02-16T03:59:12.368Z,0.00
2023-02-16T04:00:12.379Z,0.00
2023-02-16T04:01:12.387Z,0.00
2023-02-16T04:02:12.421Z,0.00
2023-02-16T04:03:12.395Z,0.00
2023-02-16T04:04:12.445Z,0.00
2023-02-16T04:05:12.410Z,0.00
2023-02-16T04:06:12.417Z,0.00
2023-02-16T04:07:12.427Z,0.00
2023-02-16T04:08:12.450Z,0.00
2023-02-16T04:09:12.440Z,0.00
2023-02-16T04:10:12.453Z,0.00
2023-02-16T04:11:12.454Z,0.00
2023-02-16T04:12:12.463Z,0.00
2023-02-16T04:13:12.482Z,0.00
2023-02-16T04:14:12.476Z,0.00
2023-02-16T04:15:12.486Z,0.00
2023-02-16T04:16:12.492Z,0.00
2023-02-16T04:17:12.496Z,0.00
2023-02-16T04:18:12.504Z,0.00
2023-02-16T04:19:12.512Z,0.00
2023-02-16T04:20:12.520Z,0.00
2023-02-16T04:21:12.529Z,0.00
2023-02-16T04:22:12.532Z,0.00
2023-02-16T04:23:12.546Z,0.00
2023-02-16T04:24:12.549Z,0.00
2023-02-16T04:25:12.556Z,0.00
2023-02-16T04:26:12.597Z,0.00
2023-02-16T04:27:12.570Z,0.00
2023-02-16T04:28:12.585Z,0.00
2023-02-16T04:29:12.604Z,0.00
2023-02-16T04:30:12.617Z,0.00
2023-02-16T04:31:12.679Z,0.00
2023-02-16T04:32:12.621Z,0.00
2023-02-16T04:33:12.608Z,0.00
2023-02-16T04:34:12.634Z,0.00
2023-02-16T04:35:12.623Z,0.00
2023-02-16T04:36:12.632Z,0.00
2023-02-16T04:37:12.637Z,0.00
2023-02-16T04:38:12.646Z,0.00
2023-02-16T04:39:12.651Z,0.00
2023-02-16T04:40:12.658Z,0.00
2023-02-16T04:41:12.664Z,0.00
2023-02-16T04:42:12.674Z,0.00
2023-02-16T04:43:12.678Z,0.00
2023-02-16T04:44:12.688Z,0.00
2023-02-16T04:45:12.699Z,0.00
2023-02-16T04:46:12.738Z,0.00
2023-02-16T04:47:12.722Z,0.00
2023-02-16T04:48:12.728Z,0.00
2023-02-16T04:49:12.721Z,0.00
2023-02-16T04:50:12.734Z,0.00
2023-02-16T04:51:12.736Z,0.00
2023-02-16T04:52:12.748Z,0.00
2023-02-16T04:53:12.753Z,0.00
2023-02-16T04:54:12.761Z,0.00
2023-02-16T04:55:12.773Z,0.00
2023-02-16T04:56:12.778Z,0.00
2023-02-16T04:57:12.785Z,0.00
2023-02-16T04:58:12.789Z,0.00
2023-02-16T04:59:12.808Z,0.00
2023-02-16T05:00:12.822Z,0.00
2023-02-16T05:01:12.906Z,0.00
2023-02-16T05:02:12.815Z,0.00
2023-02-16T05:03:12.825Z,0.00
2023-02-16T05:04:12.933Z,0.00
2023-02-16T05:05:12.837Z,0.00
2023-02-16T05:06:12.842Z,0.00
2023-02-16T05:07:12.853Z,0.00
2023-02-16T05:08:12.863Z,0.00
2023-02-16T05:09:12.864Z,0.00
2023-02-16T05:10:12.876Z,0.00
2023-02-16T05:11:12.878Z,0.00
2023-02-16T05:12:12.884Z,0.00
2023-02-16T05:13:12.894Z,0.00
2023-02-16T05:14:12.900Z,0.00
2023-02-16T05:15:12.915Z,0.00
2023-02-16T05:16:12.977Z,0.00
2023-02-16T05:17:12.954Z,0.00
2023-02-16T05:18:12.936Z,0.00
2023-02-16T05:19:12.952Z,0.00
2023-02-16T05:20:12.950Z,0.00
2023-02-16T05:21:12.953Z,0.00
2023-02-16T05:22:12.970Z,0.00
2023-02-16T05:23:12.971Z,0.00
2023-02-16T05:24:12.972Z,0.00
2023-02-16T05:25:12.977Z,0.00
2023-02-16T05:26:12.986Z,0.00
2023-02-16T05:27:13.010Z,0.00
2023-02-16T05:28:13.067Z,0.00
2023-02-16T05:29:13.017Z,0.00
2023-02-16T05:30:13.034Z,0.00
2023-02-16T05:31:13.189Z,0.00
2023-02-16T05:32:13.095Z,0.00
2023-02-16T05:33:13.035Z,0.00
2023-02-16T05:34:13.039Z,0.00
2023-02-16T05:35:13.049Z,0.00
2023-02-16T05:36:13.057Z,0.00
2023-02-16T05:37:13.063Z,0.00
2023-02-16T05:38:13.072Z,0.00
2023-02-16T05:39:13.086Z,0.00
2023-02-16T05:40:13.086Z,0.00
2023-02-16T05:41:13.094Z,0.00
2023-02-16T05:42:13.111Z,0.00
2023-02-16T05:43:13.109Z,0.00
2023-02-16T05:44:13.120Z,0.00
2023-02-16T05:45:13.137Z,0.00
2023-02-16T05:46:13.212Z,0.00
2023-02-16T05:47:13.149Z,0.00
2023-02-16T05:48:13.148Z,0.00
2023-02-16T05:49:13.154Z,0.00
2023-02-16T05:50:13.157Z,0.00
2023-02-16T05:51:13.167Z,0.00
2023-02-16T05:52:13.177Z,0.00
2023-02-16T05:53:13.179Z,0.00
2023-02-16T05:54:13.188Z,0.00
2023-02-16T05:55:13.232Z,0.00
2023-02-16T05:56:13.203Z,0.00
2023-02-16T05:57:13.207Z,0.00
2023-02-16T05:58:13.215Z,0.00
2023-02-16T05:59:13.223Z,0.00
2023-02-16T06:00:13.232Z,0.00
2023-02-16T06:01:13.235Z,0.00
2023-02-16T06:02:13.280Z,0.00
2023-02-16T06:03:13.251Z,0.00
2023-02-16T06:04:13.259Z,0.00
2023-02-16T06:05:13.264Z,0.00
2023-02-16T06:06:13.272Z,0.00
2023-02-16T06:07:14.843Z,0.00
2023-02-16T06:08:13.302Z,0.00
2023-02-16T06:09:13.292Z,0.00
2023-02-16T06:10:13.298Z,0.00
2023-02-16T06:11:13.307Z,0.00
2023-02-16T06:12:13.315Z,0.00
2023-02-16T06:13:13.318Z,0.00
2023-02-16T06:14:13.356Z,5.63
2023-02-16T06:15:13.337Z,5.63
2023-02-16T06:16:13.354Z,5.63
2023-02-16T06:17:13.347Z,5.63
2023-02-16T06:18:13.358Z,5.63
2023-02-16T06:19:13.365Z,5.63
2023-02-16T06:20:13.370Z,5.63
2023-02-16T06:21:13.374Z,5.63
2023-02-16T06:22:13.391Z,5.63
2023-02-16T06:23:13.390Z,5.63
2023-02-16T06:24:13.397Z,11.25
2023-02-16T06:25:13.409Z,11.25
2023-02-16T06:26:13.408Z,11.25
2023-02-16T06:27:13.419Z,11.25
2023-02-16T06:28:13.423Z,11.25
2023-02-16T06:29:13.430Z,11.25
2023-02-16T06:30:13.504Z,16.88
2023-02-16T06:31:13.514Z,16.88
2023-02-16T06:32:13.549Z,16.88
2023-02-16T06:33:13.456Z,16.88
2023-02-16T06:34:13.462Z,22.50
2023-02-16T06:35:13.471Z,22.50
2023-02-16T06:36:13.479Z,22.50
2023-02-16T06:37:13.487Z,22.50
2023-02-16T06:38:13.490Z,28.13
2023-02-16T06:39:13.497Z,28.13
2023-02-16T06:40:13.506Z,33.75
2023-02-16T06:41:13.516Z,33.75
2023-02-16T06:42:13.519Z,33.75
2023-02-16T06:43:13.527Z,39.38
2023-02-16T06:44:13.588Z,39.38
2023-02-16T06:45:13.538Z,45.00
2023-02-16T06:46:13.560Z,45.00
2023-02-16T06:47:13.567Z,45.00
2023-02-16T06:48:13.560Z,50.63
2023-02-16T06:49:13.574Z,50.63
2023-02-16T06:50:13.576Z,56.25
2023-02-16T06:51:13.584Z,61.88
2023-02-16T06:52:13.590Z,61.88
2023-02-16T06:53:13.595Z,67.50
2023-02-16T06:54:13.605Z,73.13
2023-02-16T06:55:13.617Z,73.13
2023-02-16T06:56:13.615Z,78.75
2023-02-16T06:57:13.637Z,84.38
2023-02-16T06:58:13.639Z,84.38
2023-02-16T06:59:13.642Z,84.38
2023-02-16T07:00:13.647Z,90.00
2023-02-16T07:01:13.769Z,90.00
2023-02-16T07:02:13.658Z,95.63
2023-02-16T07:03:13.724Z,95.63
2023-02-16T07:04:13.715Z,95.63
2023-02-16T07:05:13.681Z,101.25
2023-02-16T07:06:13.692Z,101.25
2023-02-16T07:07:13.690Z,101.25
2023-02-16T07:08:13.700Z,101.25
2023-02-16T07:09:13.708Z,106.88
2023-02-16T07:10:13.718Z,106.88
2023-02-16T07:11:13.729Z,106.88
2023-02-16T07:12:13.729Z,106.88
2023-02-16T07:13:13.738Z,106.88
2023-02-16T07:14:13.751Z,106.88
2023-02-16T07:15:13.756Z,106.88
2023-02-16T07:16:13.769Z,106.88
2023-02-16T07:17:13.764Z,106.88
2023-02-16T07:18:13.773Z,106.88
2023-02-16T07:19:13.779Z,106.88
2023-02-16T07:20:13.788Z,106.88
2023-02-16T07:21:13.797Z,106.88
2023-02-16T07:22:13.806Z,106.88
2023-02-16T07:23:13.812Z,106.88
2023-02-16T07:24:13.817Z,106.88
2023-02-16T07:25:13.838Z,106.88
2023-02-16T07:26:13.862Z,106.88
2023-02-16T07:27:13.842Z,112.50
2023-02-16T07:28:13.847Z,112.50
2023-02-16T07:29:13.858Z,112.50
2023-02-16T07:30:13.881Z,112.50
2023-02-16T07:31:14.001Z,118.13
2023-02-16T07:32:13.943Z,118.13
2023-02-16T07:33:13.884Z,112.50
2023-02-16T07:34:13.893Z,112.50
2023-02-16T07:35:13.900Z,112.50
2023-02-16T07:36:13.920Z,112.50
2023-02-16T07:37:13.919Z,112.50
2023-02-16T07:38:13.962Z,112.50
2023-02-16T07:39:13.929Z,112.50
2023-02-16T07:40:13.951Z,118.13
2023-02-16T07:41:14.102Z,118.13
2023-02-16T07:42:13.955Z,123.75
2023-02-16T07:43:13.957Z,129.38
2023-02-16T07:44:13.966Z,129.38
2023-02-16T07:45:13.971Z,140.63
2023-02-16T07:46:14.025Z,151.88
2023-02-16T07:47:13.986Z,163.13
2023-02-16T07:48:14.004Z,168.75
2023-02-16T07:49:14.001Z,174.38
2023-02-16T07:50:14.014Z,180.00
2023-02-16T07:51:14.024Z,191.25
2023-02-16T07:52:14.026Z,196.88
2023-02-16T07:53:14.037Z,196.88
2023-02-16T07:54:14.042Z,202.50
2023-02-16T07:55:14.049Z,202.50
2023-02-16T07:56:14.059Z,202.50
2023-02-16T07:57:14.071Z,202.50
2023-02-16T07:58:14.076Z,196.88
2023-02-16T07:59:14.081Z,196.88
2023-02-16T08:00:14.089Z,191.25
2023-02-16T08:01:15.864Z,180.00
2023-02-16T08:02:14.206Z,174.38
2023-02-16T08:03:14.238Z,168.75
2023-02-16T08:04:14.122Z,163.13
2023-02-16T08:05:14.129Z,168.75
2023-02-16T08:06:14.152Z,163.13
2023-02-16T08:07:14.147Z,163.13
2023-02-16T08:08:14.155Z,163.13
2023-02-16T08:09:14.162Z,163.13
2023-02-16T08:10:14.181Z,163.13
2023-02-16T08:11:14.180Z,168.75
2023-02-16T08:12:14.193Z,163.13
2023-02-16T08:13:14.196Z,157.50
2023-02-16T08:14:14.209Z,157.50
2023-02-16T08:15:14.219Z,151.88
2023-02-16T08:16:14.274Z,146.25
2023-02-16T08:17:14.230Z,140.63
2023-02-16T08:18:14.244Z,135.00
2023-02-16T08:19:14.260Z,135.00
2023-02-16T08:20:14.277Z,140.63
2023-02-16T08:21:14.349Z,140.63
2023-02-16T08:22:14.274Z,140.63
2023-02-16T08:23:14.287Z,140.63
2023-02-16T08:24:14.296Z,140.63
2023-02-16T08:25:14.299Z,140.63
2023-02-16T08:26:14.310Z,140.63
2023-02-16T08:27:14.323Z,146.25
2023-02-16T08:28:14.341Z,151.88
2023-02-16T08:29:14.338Z,157.50
2023-02-16T08:30:14.369Z,163.13
2023-02-16T08:31:14.420Z,163.13
2023-02-16T08:32:14.409Z,163.13
2023-02-16T08:33:14.370Z,163.13
2023-02-16T08:34:14.382Z,163.13
2023-02-16T08:35:14.387Z,168.75
2023-02-16T08:36:14.397Z,168.75
2023-02-16T08:37:14.401Z,174.38
2023-02-16T08:38:14.420Z,174.38
2023-02-16T08:39:14.421Z,174.38
2023-02-16T08:40:14.429Z,174.38
2023-02-16T08:41:14.436Z,174.38
2023-02-16T08:42:14.450Z,174.38
2023-02-16T08:43:14.460Z,174.38
2023-02-16T08:44:14.569Z,168.75
2023-02-16T08:45:14.471Z,168.75
2023-02-16T08:46:14.539Z,163.13
2023-02-16T08:47:14.486Z,157.50
2023-02-16T08:48:14.494Z,157.50
2023-02-16T08:49:14.502Z,168.75
2023-02-16T08:50:14.512Z,174.38
2023-02-16T08:51:14.519Z,174.38
2023-02-16T08:52:14.546Z,174.38
2023-02-16T08:53:14.545Z,174.38
2023-02-16T08:54:14.546Z,174.38
2023-02-16T08:55:14.553Z,174.38
2023-02-16T08:56:14.568Z,174.38
2023-02-16T08:57:14.571Z,174.38
2023-02-16T08:58:14.586Z,180.00
2023-02-16T08:59:14.587Z,174.38
2023-02-16T09:00:14.596Z,174.38
2023-02-16T09:01:14.652Z,180.00
2023-02-16T09:02:14.640Z,180.00
2023-02-16T09:03:14.624Z,180.00
2023-02-16T09:04:14.635Z,180.00
2023-02-16T09:05:14.640Z,180.00
2023-02-16T09:06:14.650Z,180.00
2023-02-16T09:07:14.659Z,180.00
2023-02-16T09:08:14.672Z,180.00
2023-02-16T09:09:14.680Z,180.00
2023-02-16T09:10:14.686Z,180.00
2023-02-16T09:11:14.717Z,180.00
2023-02-16T09:12:14.709Z,180.00
2023-02-16T09:13:14.729Z,180.00
2023-02-16T09:14:14.726Z,180.00
2023-02-16T09:15:14.732Z,180.00
2023-02-16T09:16:14.782Z,180.00
2023-02-16T09:17:14.751Z,180.00
2023-02-16T09:18:14.761Z,185.63
2023-02-16T09:19:14.801Z,185.63
2023-02-16T09:20:14.782Z,185.63
2023-02-16T09:21:14.800Z,185.63
2023-02-16T09:22:14.809Z,191.25
2023-02-16T09:23:14.812Z,191.25
2023-02-16T09:24:14.824Z,196.88
2023-02-16T09:25:14.827Z,196.88
2023-02-16T09:26:14.849Z,202.50
2023-02-16T09:27:14.862Z,208.13
2023-02-16T09:28:14.859Z,208.13
2023-02-16T09:29:14.863Z,213.75
2023-02-16T09:30:14.903Z,219.38
2023-02-16T09:31:14.985Z,225.00
2023-02-16T09:32:14.928Z,230.63
2023-02-16T09:33:14.909Z,236.25
2023-02-16T09:34:14.922Z,236.25
2023-02-16T09:35:14.926Z,241.88
2023-02-16T09:36:14.937Z,247.50
2023-02-16T09:37:14.943Z,247.50
2023-02-16T09:38:14.956Z,247.50
2023-02-16T09:39:14.969Z,247.50
2023-02-16T09:40:14.978Z,247.50
2023-02-16T09:41:14.991Z,247.50
2023-02-16T09:42:15.017Z,247.50
2023-02-16T09:43:15.008Z,247.50
2023-02-16T09:44:15.017Z,247.50
2023-02-16T09:45:15.027Z,247.50
2023-02-16T09:46:15.051Z,247.50
2023-02-16T09:47:15.047Z,247.50
2023-02-16T09:48:15.060Z,247.50
2023-02-16T09:49:15.076Z,241.88
2023-02-16T09:50:15.081Z,241.88
2023-02-16T09:51:15.778Z,241.88
2023-02-16T09:52:15.107Z,241.88
2023-02-16T09:53:15.115Z,247.50
2023-02-16T09:54:15.125Z,247.50
2023-02-16T09:55:15.141Z,253.13
2023-02-16T09:56:15.149Z,253.13
2023-02-16T09:57:15.161Z,258.75
2023-02-16T09:58:15.181Z,270.00
2023-02-16T09:59:15.182Z,275.63
2023-02-16T10:00:15.218Z,281.25
2023-02-16T10:01:15.270Z,286.88
2023-02-16T10:02:15.243Z,286.88
2023-02-16T10:03:15.230Z,292.50
2023-02-16T10:04:15.242Z,303.75
2023-02-16T10:05:15.248Z,309.38
2023-02-16T10:06:15.262Z,315.00
2023-02-16T10:07:15.279Z,309.38
2023-02-16T10:08:15.289Z,309.38
2023-02-16T10:09:15.295Z,315.00
2023-02-16T10:10:15.310Z,315.00
2023-02-16T10:11:15.316Z,315.00
2023-02-16T10:12:15.330Z,320.63
2023-02-16T10:13:15.349Z,320.63
2023-02-16T10:14:15.356Z,315.00
2023-02-16T10:15:15.374Z,309.38
2023-02-16T10:16:15.444Z,309.38
2023-02-16T10:17:15.422Z,303.75
2023-02-16T10:18:15.402Z,298.13
2023-02-16T10:19:15.417Z,286.88
2023-02-16T10:20:15.427Z,281.25
2023-02-16T10:21:15.444Z,275.63
2023-02-16T10:22:17.329Z,275.63
2023-02-16T10:23:15.462Z,270.00
2023-02-16T10:24:15.479Z,264.38
2023-02-16T10:25:15.494Z,258.75
2023-02-16T10:26:15.505Z,258.75
2023-02-16T10:27:15.512Z,264.38
2023-02-16T10:28:15.526Z,258.75
2023-02-16T10:29:15.541Z,253.13
2023-02-16T10:30:15.686Z,247.50
2023-02-16T10:31:15.723Z,247.50
2023-02-16T10:32:15.579Z,241.88
2023-02-16T10:33:15.611Z,247.50
2023-02-16T10:34:15.615Z,241.88
2023-02-16T10:35:15.618Z,247.50
2023-02-16T10:36:15.632Z,253.13
2023-02-16T10:37:15.643Z,258.75
2023-02-16T10:38:15.661Z,270.00
2023-02-16T10:39:15.671Z,286.88
2023-02-16T10:40:15.681Z,309.38
2023-02-16T10:41:15.697Z,326.25
2023-02-16T10:42:15.708Z,343.13
2023-02-16T10:43:15.724Z,348.75
2023-02-16T10:44:15.741Z,348.75
2023-02-16T10:45:15.747Z,348.75
2023-02-16T10:46:15.770Z,348.75
2023-02-16T10:47:15.782Z,348.75
2023-02-16T10:48:15.785Z,337.50
2023-02-16T10:49:15.814Z,326.25
2023-02-16T10:50:15.813Z,320.63
2023-02-16T10:51:15.828Z,320.63
2023-02-16T10:52:15.843Z,320.63
2023-02-16T10:53:15.870Z,320.63
2023-02-16T10:54:15.863Z,320.63
2023-02-16T10:55:15.879Z,320.63
2023-02-16T10:56:15.895Z,320.63
2023-02-16T10:57:15.916Z,320.63
2023-02-16T10:58:15.921Z,320.63
2023-02-16T10:59:15.933Z,326.25
2023-02-16T11:00:15.964Z,320.63
2023-02-16T11:01:15.984Z,320.63
2023-02-16T11:02:15.975Z,315.00
2023-02-16T11:03:16.026Z,309.38
2023-02-16T11:04:16.029Z,315.00
2023-02-16T11:05:16.017Z,331.88
2023-02-16T11:06:16.033Z,337.50
2023-02-16T11:07:16.116Z,348.75
2023-02-16T11:08:16.058Z,354.38
2023-02-16T11:09:16.073Z,360.00
2023-02-16T11:10:16.126Z,365.63
2023-02-16T11:11:16.101Z,354.38
2023-02-16T11:12:16.117Z,343.13
2023-02-16T11:13:16.132Z,320.63
2023-02-16T11:14:16.144Z,298.13
2023-02-16T11:15:16.156Z,281.25
2023-02-16T11:16:16.197Z,270.00
2023-02-16T11:17:16.184Z,264.38
2023-02-16T11:18:16.199Z,264.38
2023-02-16T11:19:16.219Z,270.00
2023-02-16T11:20:16.226Z,281.25
2023-02-16T11:21:16.240Z,286.88
2023-02-16T11:22:16.262Z,292.50
2023-02-16T11:23:16.269Z,298.13
2023-02-16T11:24:16.283Z,298.13
2023-02-16T11:25:16.307Z,298.13
2023-02-16T11:26:16.325Z,309.38
2023-02-16T11:27:16.329Z,315.00
2023-02-16T11:28:16.343Z,320.63
2023-02-16T11:29:16.354Z,320.63
2023-02-16T11:30:16.430Z,326.25
2023-02-16T11:31:16.469Z,326.25
2023-02-16T11:32:16.432Z,326.25
2023-02-16T11:33:16.444Z,326.25
2023-02-16T11:34:16.438Z,326.25
2023-02-16T11:35:16.440Z,326.25
2023-02-16T11:36:16.458Z,320.63
2023-02-16T11:37:16.478Z,309.38
2023-02-16T11:38:16.484Z,309.38
2023-02-16T11:39:16.500Z,315.00
2023-02-16T11:40:16.516Z,315.00
2023-02-16T11:41:16.524Z,320.63
2023-02-16T11:42:16.539Z,326.25
2023-02-16T11:43:16.563Z,326.25
2023-02-16T11:44:16.566Z,320.63
2023-02-16T11:45:16.579Z,320.63
2023-02-16T11:46:16.626Z,320.63
2023-02-16T11:47:16.608Z,303.75
2023-02-16T11:48:16.620Z,298.13
2023-02-16T11:49:16.635Z,292.50
2023-02-16T11:50:16.649Z,286.88
2023-02-16T11:51:16.670Z,281.25
2023-02-16T11:52:16.678Z,275.63
2023-02-16T11:53:16.739Z,270.00
2023-02-16T11:54:16.708Z,270.00
2023-02-16T11:55:16.724Z,270.00
2023-02-16T11:56:16.737Z,270.00
2023-02-16T11:57:16.762Z,264.38
2023-02-16T11:58:16.770Z,270.00
2023-02-16T11:59:16.786Z,264.38
2023-02-16T12:00:16.832Z,264.38
2023-02-16T12:01:16.812Z,264.38
2023-02-16T12:02:16.834Z,264.38
2023-02-16T12:03:16.846Z,270.00
2023-02-16T12:04:16.898Z,258.75
2023-02-16T12:05:16.913Z,258.75
2023-02-16T12:06:16.890Z,264.38
2023-02-16T12:07:16.898Z,264.38
2023-02-16T12:08:16.915Z,264.38
2023-02-16T12:09:16.933Z,264.38
2023-02-16T12:10:16.945Z,264.38
2023-02-16T12:11:16.961Z,258.75
2023-02-16T12:12:16.976Z,253.13
2023-02-16T12:13:16.989Z,258.75
2023-02-16T12:14:17.004Z,258.75
2023-02-16T12:15:17.024Z,264.38
2023-02-16T12:16:17.080Z,264.38
2023-02-16T12:17:17.051Z,270.00
2023-02-16T12:18:17.065Z,264.38
2023-02-16T12:19:17.080Z,258.75
2023-02-16T12:20:17.101Z,253.13
2023-02-16T12:21:17.366Z,247.50
2023-02-16T12:22:17.125Z,247.50
2023-02-16T12:23:17.147Z,247.50
2023-02-16T12:24:17.158Z,253.13
2023-02-16T12:25:17.171Z,253.13
2023-02-16T12:26:17.226Z,247.50
2023-02-16T12:27:17.205Z,253.13
2023-02-16T12:28:17.217Z,247.50
2023-02-16T12:29:17.231Z,247.50
2023-02-16T12:30:17.288Z,247.50
2023-02-16T12:31:17.434Z,247.50
2023-02-16T12:32:17.275Z,247.50
2023-02-16T12:33:17.291Z,247.50
2023-02-16T12:34:17.308Z,253.13
2023-02-16T12:35:17.323Z,258.75
2023-02-16T12:36:17.340Z,258.75
2023-02-16T12:37:17.359Z,258.75
2023-02-16T12:38:17.370Z,258.75
2023-02-16T12:39:17.391Z,258.75
2023-02-16T12:40:17.397Z,258.75
2023-02-16T12:41:17.412Z,253.13
2023-02-16T12:42:17.433Z,253.13
2023-02-16T12:43:17.442Z,253.13
2023-02-16T12:44:17.457Z,241.88
2023-02-16T12:45:17.477Z,236.25
2023-02-16T12:46:17.490Z,236.25
2023-02-16T12:47:17.507Z,236.25
2023-02-16T12:48:17.518Z,241.88
2023-02-16T12:49:17.534Z,247.50
2023-02-16T12:50:17.548Z,247.50
2023-02-16T12:51:17.562Z,253.13
2023-02-16T12:52:17.578Z,264.38
2023-02-16T12:53:17.594Z,275.63